Time;durP1;ratioP1;P1;durP2;ratioP2;P2;SDS_P1;SDS_P2;PMS_P1;PMS_P2;Temp;Humidity;BMP_temperature;BMP_pressure;BME280_temperature;BME280_humidity;BME280_pressure;Samples;Min_cycle;Max_cycle;Signal;HPM_P1;HPM_P2
2024/01/01 00:00:34;;;;;;;18.73;4.90;;;8.20;99.90;;;;;;5099137;28;20517;-73
2024/01/01 00:02:59;;;;;;;15.63;4.27;;;8.20;99.90;;;;;;5094496;28;20172;-72
2024/01/01 00:05:25;;;;;;;22.40;5.67;;;8.10;99.90;;;;;;5095454;28;20222;-74
2024/01/01 00:07:51;;;;;;;20.27;5.07;;;8.00;99.90;;;;;;5095370;28;20163;-74
2024/01/01 00:10:19;;;;;;;13.73;4.40;;;8.00;99.90;;;;;;5095677;28;20240;-74
2024/01/01 00:12:46;;;;;;;20.37;4.90;;;8.00;99.90;;;;;;5095631;28;20172;-74
2024/01/01 00:15:11;;;;;;;15.27;5.00;;;8.10;99.90;;;;;;5095679;28;20190;-74
2024/01/01 00:17:38;;;;;;;14.60;4.73;;;8.10;99.90;;;;;;5095754;28;20238;-73
2024/01/01 00:20:05;;;;;;;19.83;4.67;;;8.00;99.90;;;;;;5095734;28;20164;-74
2024/01/01 00:22:30;;;;;;;18.43;4.63;;;8.00;99.90;;;;;;5095153;28;20163;-74
2024/01/01 00:24:58;;;;;;;19.27;5.27;;;7.90;99.90;;;;;;5076968;28;20214;-74
2024/01/01 00:27:24;;;;;;;15.07;4.87;;;7.90;99.90;;;;;;5095550;28;20624;-73
2024/01/01 00:29:50;;;;;;;9.73;3.60;;;7.90;99.90;;;;;;5095242;28;20298;-74
2024/01/01 00:32:16;;;;;;;16.40;4.57;;;7.90;99.90;;;;;;5095496;28;20548;-74
2024/01/01 00:34:42;;;;;;;18.43;5.00;;;7.90;99.90;;;;;;5095217;28;20168;-73
2024/01/01 00:37:08;;;;;;;17.67;4.50;;;7.90;99.90;;;;;;5094628;28;20518;-74
2024/01/01 00:39:34;;;;;;;14.87;3.80;;;7.90;99.90;;;;;;5095038;28;20168;-73
2024/01/01 00:41:59;;;;;;;16.33;4.00;;;7.90;99.90;;;;;;5095135;28;20534;-73
2024/01/01 00:44:26;;;;;;;13.80;3.43;;;7.90;99.90;;;;;;5095013;28;20203;-73
2024/01/01 00:46:52;;;;;;;19.47;4.43;;;7.90;99.90;;;;;;5095067;28;20163;-72
2024/01/01 00:49:17;;;;;;;17.80;3.93;;;7.90;99.90;;;;;;5095172;28;20168;-73
2024/01/01 00:51:43;;;;;;;16.50;3.73;;;8.00;99.90;;;;;;5094936;28;20171;-74
2024/01/01 00:54:10;;;;;;;13.47;3.20;;;8.00;99.90;;;;;;5094909;28;20164;-73
2024/01/01 00:56:36;;;;;;;24.60;4.43;;;8.00;99.90;;;;;;5076825;28;20172;-73
2024/01/01 00:59:01;;;;;;;19.13;4.27;;;8.00;99.90;;;;;;5095008;28;20168;-72
2024/01/01 01:01:27;;;;;;;13.47;3.63;;;8.00;99.90;;;;;;5076420;28;20210;-73
2024/01/01 01:03:52;;;;;;;17.90;4.07;;;7.90;99.90;;;;;;5094167;28;20207;-74
2024/01/01 01:06:19;;;;;;;15.73;3.47;;;7.90;99.90;;;;;;5094504;28;20646;-73
2024/01/01 01:08:45;;;;;;;9.97;3.03;;;7.90;99.90;;;;;;5094701;28;20172;-72
2024/01/01 01:11:11;;;;;;;18.27;4.20;;;7.90;99.90;;;;;;5094772;28;20270;-73
2024/01/01 01:13:36;;;;;;;16.20;3.60;;;7.90;99.90;;;;;;5094286;28;20183;-73
2024/01/01 01:16:02;;;;;;;16.30;3.80;;;7.90;99.90;;;;;;5094344;28;20200;-73
2024/01/01 01:18:28;;;;;;;12.93;3.50;;;7.90;99.90;;;;;;5094686;28;20184;-72
2024/01/01 01:20:53;;;;;;;10.27;3.10;;;7.90;99.90;;;;;;5075673;28;20176;-72
2024/01/01 01:23:19;;;;;;;15.27;3.00;;;7.90;99.90;;;;;;5094324;28;20199;-72
2024/01/01 01:25:44;;;;;;;18.07;3.60;;;7.90;99.90;;;;;;5094353;28;20179;-73
2024/01/01 01:28:10;;;;;;;13.67;3.40;;;7.90;99.90;;;;;;5094427;28;20331;-73
2024/01/01 01:30:36;;;;;;;14.17;2.37;;;7.90;99.90;;;;;;5094151;28;20171;-72
2024/01/01 01:33:01;;;;;;;11.27;3.20;;;7.90;99.90;;;;;;5093549;28;20171;-74
2024/01/01 01:35:27;;;;;;;13.67;3.30;;;7.90;99.90;;;;;;5093914;28;20211;-73
2024/01/01 01:37:52;;;;;;;19.20;3.17;;;7.80;99.90;;;;;;5094418;28;20167;-72
2024/01/01 01:40:18;;;;;;;11.03;3.23;;;7.90;99.90;;;;;;5094343;28;20168;-73
2024/01/01 01:42:47;;;;;;;18.93;3.60;;;7.90;99.90;;;;;;5094045;28;20179;-73
2024/01/01 01:45:13;;;;;;;13.13;3.10;;;7.80;99.90;;;;;;5075699;28;20587;-73
2024/01/01 01:47:40;;;;;;;12.73;3.20;;;7.70;99.90;;;;;;5075829;28;20203;-72
2024/01/01 01:50:06;;;;;;;16.43;3.00;;;7.70;99.90;;;;;;5094329;28;20187;-72
2024/01/01 01:52:37;;;;;;;14.37;2.90;;;7.80;99.90;;;;;;5094249;28;20175;-73
2024/01/01 01:55:03;;;;;;;12.53;2.70;;;7.80;99.90;;;;;;5093980;28;20183;-72
2024/01/01 01:57:29;;;;;;;17.07;2.73;;;7.80;99.90;;;;;;5093763;28;20657;-72
2024/01/01 01:59:55;;;;;;;9.70;2.97;;;7.80;99.90;;;;;;5093918;28;20172;-73
2024/01/01 02:02:23;;;;;;;14.30;2.63;;;7.80;99.90;;;;;;5093465;28;20179;-73
2024/01/01 02:04:50;;;;;;;15.30;2.63;;;7.80;99.90;;;;;;5093585;28;20241;-72
2024/01/01 02:07:16;;;;;;;11.37;2.53;;;7.80;99.90;;;;;;5093873;28;20167;-73
2024/01/01 02:09:41;;;;;;;16.93;3.10;;;7.80;99.90;;;;;;5093857;28;20214;-73
2024/01/01 02:12:08;;;;;;;15.33;3.00;;;7.80;99.90;;;;;;5093793;28;20581;-72
2024/01/01 02:14:34;;;;;;;14.17;3.30;;;7.80;99.90;;;;;;5093427;28;20194;-73
2024/01/01 02:17:00;;;;;;;11.73;2.80;;;7.80;99.90;;;;;;5093451;28;20164;-73
2024/01/01 02:19:26;;;;;;;12.47;2.73;;;7.80;99.90;;;;;;5093597;28;20168;-73
2024/01/01 02:21:53;;;;;;;11.03;2.50;;;7.80;99.90;;;;;;5093726;28;20191;-72
2024/01/01 02:24:20;;;;;;;14.20;3.40;;;7.80;99.90;;;;;;5092852;28;20200;-73
2024/01/01 02:26:46;;;;;;;11.07;2.93;;;7.80;99.90;;;;;;5093447;28;20182;-73
2024/01/01 02:29:13;;;;;;;15.60;2.80;;;7.80;99.90;;;;;;5093201;28;20304;-73
2024/01/01 02:31:39;;;;;;;15.90;3.50;;;7.80;99.90;;;;;;5093262;28;20168;-73
2024/01/01 02:34:04;;;;;;;13.50;2.80;;;7.80;99.90;;;;;;5093306;28;20649;-72
2024/01/01 02:36:36;;;;;;;9.43;2.30;;;7.80;99.90;;;;;;5093531;28;20161;-73
2024/01/01 02:39:03;;;;;;;12.83;2.77;;;7.70;99.90;;;;;;5093538;28;20172;-73
2024/01/01 02:41:30;;;;;;;19.87;3.00;;;7.80;99.90;;;;;;5093299;28;20163;-73
2024/01/01 02:43:55;;;;;;;12.33;2.90;;;7.80;99.90;;;;;;5093466;28;20203;-72
2024/01/01 02:46:21;;;;;;;15.80;2.73;;;7.90;99.90;;;;;;5093123;28;20523;-73
2024/01/01 02:48:46;;;;;;;13.50;2.80;;;7.80;99.90;;;;;;5093221;28;20175;-73
2024/01/01 02:51:12;;;;;;;15.13;3.17;;;7.70;99.90;;;;;;5093394;28;20257;-74
2024/01/01 02:53:38;;;;;;;11.87;2.90;;;7.60;99.90;;;;;;5093219;28;20179;-73
2024/01/01 02:56:03;;;;;;;15.40;2.93;;;7.60;99.90;;;;;;5092974;28;20175;-74
2024/01/01 02:58:29;;;;;;;13.53;2.53;;;7.60;99.90;;;;;;5093230;28;20200;-73
2024/01/01 03:00:55;;;;;;;14.63;2.97;;;7.60;99.90;;;;;;5092953;28;20180;-73
2024/01/01 03:03:20;;;;;;;12.43;2.50;;;7.50;99.90;;;;;;5093170;28;20255;-73
2024/01/01 03:05:46;;;;;;;7.07;2.30;;;7.60;99.90;;;;;;5093173;28;20237;-74
2024/01/01 03:08:12;;;;;;;8.60;2.47;;;7.60;99.90;;;;;;5093312;28;20183;-74
2024/01/01 03:10:37;;;;;;;8.63;2.30;;;7.60;99.90;;;;;;5092876;28;20282;-73
2024/01/01 03:13:03;;;;;;;8.80;2.53;;;7.60;99.90;;;;;;5093197;28;20168;-74
2024/01/01 03:15:29;;;;;;;11.47;2.87;;;7.60;99.90;;;;;;5092651;28;20203;-73
2024/01/01 03:17:55;;;;;;;15.43;2.80;;;7.70;99.90;;;;;;5093138;28;20667;-73
2024/01/01 03:20:20;;;;;;;17.17;3.17;;;7.60;99.90;;;;;;5092953;28;20707;-73
2024/01/01 03:22:46;;;;;;;14.10;2.57;;;7.60;99.90;;;;;;5092963;28;20183;-74
2024/01/01 03:25:12;;;;;;;14.23;2.80;;;7.60;99.90;;;;;;5092747;28;20250;-71
2024/01/01 03:27:38;;;;;;;11.00;2.87;;;7.60;99.90;;;;;;5092939;28;20623;-73
2024/01/01 03:30:08;;;;;;;12.37;2.80;;;7.60;99.90;;;;;;5092517;28;20254;-73
2024/01/01 03:32:37;;;;;;;13.30;2.43;;;7.60;99.90;;;;;;5092936;28;20230;-74
2024/01/01 03:35:04;;;;;;;12.57;3.17;;;7.60;99.90;;;;;;5092865;28;20172;-73
2024/01/01 03:37:30;;;;;;;10.30;2.80;;;7.60;99.90;;;;;;5096174;28;20259;-74
2024/01/01 03:39:55;;;;;;;12.13;2.50;;;7.70;99.90;;;;;;5096612;28;20228;-72
2024/01/01 03:42:21;;;;;;;11.33;2.83;;;7.70;99.90;;;;;;5096660;28;20172;-72
2024/01/01 03:44:46;;;;;;;10.47;2.77;;;7.70;99.90;;;;;;5096043;28;20686;-73
2024/01/01 03:47:12;;;;;;;10.23;2.47;;;7.70;99.90;;;;;;5096532;28;20223;-73
2024/01/01 03:49:39;;;;;;;7.90;2.53;;;7.70;99.90;;;;;;5096517;28;20194;-73
2024/01/01 03:52:05;;;;;;;12.30;2.87;;;7.60;99.90;;;;;;5096399;28;20179;-73
2024/01/01 03:54:30;;;;;;;11.97;3.03;;;7.60;99.90;;;;;;5096148;28;20172;-73
2024/01/01 03:56:56;;;;;;;9.00;3.03;;;7.60;99.90;;;;;;5096324;28;20156;-72
2024/01/01 03:59:21;;;;;;;18.03;3.17;;;7.60;99.90;;;;;;5077855;28;20179;-73
2024/01/01 04:01:47;;;;;;;13.10;3.03;;;7.60;99.90;;;;;;5096220;28;20627;-72
2024/01/01 04:04:13;;;;;;;8.87;2.57;;;7.50;99.90;;;;;;5096029;28;20627;-73
2024/01/01 04:06:38;;;;;;;13.77;2.97;;;7.50;99.90;;;;;;5078005;28;20168;-74
2024/01/01 04:09:04;;;;;;;15.27;2.73;;;7.50;99.90;;;;;;5095995;28;20202;-73
2024/01/01 04:11:29;;;;;;;12.03;3.40;;;7.50;99.90;;;;;;5096314;28;20619;-72
2024/01/01 04:13:55;;;;;;;9.63;3.20;;;7.40;99.90;;;;;;5095605;28;20623;-73
2024/01/01 04:16:20;;;;;;;13.03;3.00;;;7.40;99.90;;;;;;5077650;28;20487;-73
2024/01/01 04:18:46;;;;;;;13.40;2.70;;;7.30;99.90;;;;;;5095682;28;20168;-73
2024/01/01 04:21:12;;;;;;;15.70;2.70;;;7.30;99.90;;;;;;5095771;28;20251;-72
2024/01/01 04:23:37;;;;;;;7.87;2.23;;;7.20;99.90;;;;;;5095129;28;20230;-73
2024/01/01 04:26:03;;;;;;;16.30;2.77;;;7.30;99.90;;;;;;5095611;28;20649;-72
2024/01/01 04:28:28;;;;;;;11.90;2.07;;;7.30;99.90;;;;;;5095018;28;20630;-74
2024/01/01 04:30:54;;;;;;;9.33;2.37;;;7.30;99.90;;;;;;5095502;28;20175;-72
2024/01/01 04:33:20;;;;;;;14.80;2.63;;;7.30;99.90;;;;;;5095461;28;20175;-72
2024/01/01 04:35:46;;;;;;;9.13;2.47;;;7.40;99.90;;;;;;5095084;28;20164;-72
2024/01/01 04:38:12;;;;;;;11.13;2.30;;;7.30;99.90;;;;;;5094956;28;20174;-72
2024/01/01 04:40:37;;;;;;;9.37;2.23;;;7.30;99.90;;;;;;5095262;28;20298;-73
2024/01/01 04:43:04;;;;;;;9.40;2.50;;;7.30;99.90;;;;;;5075383;28;20168;-72
2024/01/01 04:45:33;;;;;;;11.03;2.23;;;7.30;99.90;;;;;;5094839;28;20246;-72
2024/01/01 04:47:59;;;;;;;8.07;2.30;;;7.30;99.90;;;;;;5076217;28;20213;-72
2024/01/01 04:50:24;;;;;;;9.87;2.30;;;7.30;99.90;;;;;;5095261;28;20623;-72
2024/01/01 04:52:50;;;;;;;7.77;3.10;;;7.40;99.90;;;;;;5094720;28;20180;-72
2024/01/01 04:55:16;;;;;;;8.03;2.63;;;7.30;99.90;;;;;;5094922;28;20184;-72
2024/01/01 04:57:41;;;;;;;15.40;2.47;;;7.40;99.90;;;;;;5076386;28;20182;-73
2024/01/01 05:00:08;;;;;;;7.80;2.47;;;7.40;99.90;;;;;;5095229;28;20246;-72
2024/01/01 05:02:33;;;;;;;10.83;2.30;;;7.40;99.90;;;;;;5094775;28;20579;-72
2024/01/01 05:04:59;;;;;;;8.83;2.20;;;7.40;99.90;;;;;;5094728;28;20212;-73
2024/01/01 05:07:24;;;;;;;11.13;2.73;;;7.30;99.90;;;;;;5094752;28;20659;-73
2024/01/01 05:09:50;;;;;;;10.90;2.63;;;7.40;99.90;;;;;;5094712;28;20192;-73
2024/01/01 05:12:16;;;;;;;10.23;2.60;;;7.30;99.90;;;;;;5094419;28;20176;-73
2024/01/01 05:14:42;;;;;;;11.43;2.53;;;7.30;99.90;;;;;;5094109;28;20168;-73
2024/01/01 05:17:08;;;;;;;11.73;2.40;;;7.40;99.90;;;;;;5094713;28;20176;-72
2024/01/01 05:19:33;;;;;;;9.93;2.40;;;7.30;99.90;;;;;;5094469;28;20519;-72
2024/01/01 05:21:59;;;;;;;10.43;2.67;;;7.30;99.90;;;;;;5094540;28;20642;-73
2024/01/01 05:24:24;;;;;;;8.80;2.53;;;7.30;99.90;;;;;;5093982;28;20211;-72
2024/01/01 05:26:50;;;;;;;7.90;2.23;;;7.30;99.90;;;;;;5075590;28;20179;-73
2024/01/01 05:29:15;;;;;;;10.23;2.20;;;7.30;99.90;;;;;;5060242;28;20695;-72
2024/01/01 05:31:41;;;;;;;11.73;2.70;;;7.30;99.90;;;;;;5052863;28;20655;-73
2024/01/01 05:34:06;;;;;;;8.33;2.17;;;7.30;99.90;;;;;;5053148;28;20690;-72
2024/01/01 05:36:32;;;;;;;9.97;2.30;;;7.30;99.90;;;;;;5054065;28;20714;-73
2024/01/01 05:38:58;;;;;;;9.50;1.93;;;7.40;99.90;;;;;;5054100;28;20269;-73
2024/01/01 05:41:23;;;;;;;11.23;2.47;;;7.40;99.90;;;;;;5053515;28;20205;-73
2024/01/01 05:43:50;;;;;;;7.57;2.60;;;7.40;99.90;;;;;;5053383;28;20200;-73
2024/01/01 05:46:15;;;;;;;7.30;2.23;;;7.40;99.90;;;;;;5053210;28;20243;-73
2024/01/01 05:48:41;;;;;;;8.47;2.10;;;7.40;99.90;;;;;;5052590;28;20616;-73
2024/01/01 05:51:07;;;;;;;11.10;2.93;;;7.40;99.90;;;;;;5053681;28;20562;-73
2024/01/01 05:53:33;;;;;;;9.97;2.07;;;7.40;99.90;;;;;;5053850;28;20302;-73
2024/01/01 05:55:58;;;;;;;8.10;2.43;;;7.40;99.90;;;;;;5052807;28;20260;-73
2024/01/01 05:58:24;;;;;;;11.87;2.50;;;7.30;99.90;;;;;;5053553;28;20621;-72
2024/01/01 06:00:49;;;;;;;11.07;3.20;;;7.30;99.90;;;;;;5052325;28;20643;-72
2024/01/01 06:03:15;;;;;;;9.50;2.57;;;7.30;99.90;;;;;;5052540;28;20632;-72
2024/01/01 06:05:40;;;;;;;12.50;2.73;;;7.30;99.90;;;;;;5053408;28;20219;-73
2024/01/01 06:08:06;;;;;;;6.33;2.00;;;7.30;99.90;;;;;;5053424;28;20165;-72
2024/01/01 06:10:32;;;;;;;8.37;1.93;;;7.30;99.90;;;;;;5053034;28;20189;-73
2024/01/01 06:12:58;;;;;;;7.97;2.23;;;7.30;99.90;;;;;;5053233;28;20168;-72
2024/01/01 06:15:25;;;;;;;10.97;2.80;;;7.30;99.90;;;;;;5053266;28;20307;-72
2024/01/01 06:17:52;;;;;;;6.13;2.03;;;7.30;99.90;;;;;;5053122;28;20165;-72
2024/01/01 06:20:18;;;;;;;12.27;2.50;;;7.20;99.90;;;;;;5052920;28;20276;-73
2024/01/01 06:22:43;;;;;;;8.10;2.47;;;7.30;99.90;;;;;;5053331;28;20727;-73
2024/01/01 06:25:10;;;;;;;9.83;2.40;;;7.30;99.90;;;;;;5051387;28;20525;-72
2024/01/01 06:27:36;;;;;;;12.07;2.00;;;7.30;99.90;;;;;;5053084;28;20192;-72
2024/01/01 06:30:03;;;;;;;10.93;2.57;;;7.30;99.90;;;;;;5091284;28;20674;-71
2024/01/01 06:32:29;;;;;;;10.57;2.60;;;7.30;99.90;;;;;;5092894;28;20270;-72
2024/01/01 06:34:54;;;;;;;9.30;2.43;;;7.30;99.90;;;;;;5093035;28;20579;-72
2024/01/01 06:37:20;;;;;;;10.73;2.73;;;7.30;99.90;;;;;;5093133;28;20164;-73
2024/01/01 06:39:45;;;;;;;14.13;2.63;;;7.30;99.90;;;;;;5093187;28;20172;-72
2024/01/01 06:42:11;;;;;;;6.83;2.30;;;7.30;99.90;;;;;;5092890;28;20550;-72
2024/01/01 06:44:36;;;;;;;11.77;2.40;;;7.20;99.90;;;;;;5074827;28;20313;-72
2024/01/01 06:47:03;;;;;;;9.50;2.40;;;7.30;99.90;;;;;;5093083;28;20678;-72
2024/01/01 06:49:29;;;;;;;9.33;2.40;;;7.30;99.90;;;;;;5092883;28;20175;-72
2024/01/01 06:51:54;;;;;;;9.87;2.50;;;7.30;99.90;;;;;;5092648;28;20168;-72
2024/01/01 06:54:20;;;;;;;8.50;2.10;;;7.30;99.90;;;;;;5092673;28;20657;-72
2024/01/01 06:56:46;;;;;;;9.77;2.40;;;7.40;99.90;;;;;;5092963;28;20246;-72
2024/01/01 06:59:13;;;;;;;14.70;2.63;;;7.40;99.90;;;;;;5092286;28;20232;-73
2024/01/01 07:01:41;;;;;;;12.70;2.57;;;7.40;99.90;;;;;;5092911;28;20250;-72
2024/01/01 07:04:06;;;;;;;9.90;2.40;;;7.40;99.90;;;;;;5074207;28;20267;-72
2024/01/01 07:06:33;;;;;;;5.97;1.77;;;7.40;99.90;;;;;;5092490;28;20179;-73
2024/01/01 07:09:00;;;;;;;10.10;2.70;;;7.40;99.90;;;;;;5092517;28;20217;-72
2024/01/01 07:11:25;;;;;;;8.63;2.70;;;7.40;99.90;;;;;;5094314;28;20523;-72
2024/01/01 07:13:51;;;;;;;7.20;2.27;;;7.40;99.90;;;;;;5096609;28;20259;-72
2024/01/01 07:16:17;;;;;;;8.87;2.33;;;7.50;99.90;;;;;;5096226;28;20175;-72
2024/01/01 07:18:42;;;;;;;10.80;2.30;;;7.70;99.90;;;;;;5096759;28;20178;-72
2024/01/01 07:21:08;;;;;;;9.60;2.00;;;7.50;99.90;;;;;;5096161;28;20243;-72
2024/01/01 07:23:34;;;;;;;6.90;2.40;;;7.30;99.90;;;;;;5096369;28;20217;-72
2024/01/01 07:26:00;;;;;;;7.87;2.50;;;7.30;99.90;;;;;;5096633;28;20172;-73
2024/01/01 07:28:26;;;;;;;10.43;2.13;;;7.30;99.90;;;;;;5096391;28;20260;-72
2024/01/01 07:30:52;;;;;;;10.43;3.20;;;7.40;99.90;;;;;;5096779;28;20182;-72
2024/01/01 07:33:17;;;;;;;11.10;2.70;;;7.40;99.90;;;;;;5078396;28;20176;-72
2024/01/01 07:35:43;;;;;;;15.20;2.63;;;7.50;99.90;;;;;;5096363;28;20164;-72
2024/01/01 07:38:09;;;;;;;6.30;2.40;;;7.40;99.90;;;;;;5096439;28;20172;-72
2024/01/01 07:40:35;;;;;;;10.97;2.33;;;7.50;99.90;;;;;;5096133;28;20645;-72
2024/01/01 07:43:00;;;;;;;13.57;2.47;;;7.50;99.90;;;;;;5096254;28;20176;-72
2024/01/01 07:45:26;;;;;;;12.37;2.57;;;7.50;99.90;;;;;;5096267;28;20207;-72
2024/01/01 07:47:52;;;;;;;9.73;2.40;;;7.40;99.90;;;;;;5096162;28;20209;-73
2024/01/01 07:50:18;;;;;;;9.63;2.63;;;7.30;99.90;;;;;;5095715;28;20508;-73
2024/01/01 07:52:43;;;;;;;8.03;2.03;;;7.40;99.90;;;;;;5096240;28;20279;-72
2024/01/01 07:55:11;;;;;;;12.93;2.43;;;7.40;99.90;;;;;;5095882;28;20607;-73
2024/01/01 07:57:36;;;;;;;11.77;2.37;;;7.40;99.90;;;;;;5096290;28;20192;-73
2024/01/01 08:00:04;;;;;;;11.60;2.60;;;7.50;99.90;;;;;;5096180;28;20208;-72
2024/01/01 08:02:30;;;;;;;9.30;2.20;;;7.50;99.90;;;;;;5095889;28;20635;-72
2024/01/01 08:04:56;;;;;;;7.73;1.93;;;7.40;99.90;;;;;;5095089;28;20211;-71
2024/01/01 08:07:22;;;;;;;8.77;2.17;;;7.40;99.90;;;;;;5077953;28;20229;-72
2024/01/01 08:09:47;;;;;;;8.50;2.37;;;7.50;99.90;;;;;;5078016;28;20195;-72
2024/01/01 08:12:13;;;;;;;14.07;2.63;;;7.40;99.90;;;;;;5095728;28;20216;-72
2024/01/01 08:14:40;;;;;;;11.57;3.00;;;7.50;99.90;;;;;;5095431;28;20221;-72
2024/01/01 08:17:06;;;;;;;8.13;2.20;;;7.30;99.90;;;;;;5095626;28;20189;-72
2024/01/01 08:19:31;;;;;;;7.77;2.20;;;7.40;99.90;;;;;;5095470;28;20258;-72
2024/01/01 08:21:57;;;;;;;5.53;2.20;;;7.50;99.90;;;;;;5094931;28;20615;-72
2024/01/01 08:24:22;;;;;;;6.40;1.93;;;7.50;99.90;;;;;;5094950;28;20665;-72
2024/01/01 08:26:48;;;;;;;7.40;2.20;;;7.50;99.90;;;;;;5095681;28;20168;-72
2024/01/01 08:29:13;;;;;;;12.03;2.40;;;7.60;99.90;;;;;;5095098;28;20231;-71
2024/01/01 08:31:39;;;;;;;10.37;2.40;;;7.60;99.90;;;;;;5095521;28;20208;-72
2024/01/01 08:34:05;;;;;;;10.43;2.20;;;7.60;99.90;;;;;;5095150;28;20182;-71
2024/01/01 08:36:30;;;;;;;9.43;2.60;;;7.70;99.90;;;;;;5095387;28;20176;-72
2024/01/01 08:38:56;;;;;;;13.10;2.67;;;7.70;99.90;;;;;;5095468;28;20182;-72
2024/01/01 08:41:21;;;;;;;11.93;2.40;;;7.70;99.90;;;;;;5095508;28;20703;-72
2024/01/01 08:43:50;;;;;;;10.10;2.50;;;7.80;99.90;;;;;;5095223;28;20615;-72
2024/01/01 08:46:17;;;;;;;7.40;2.07;;;7.80;99.90;;;;;;5095115;28;20172;-72
2024/01/01 08:48:44;;;;;;;11.73;2.57;;;7.80;99.90;;;;;;5094903;28;20175;-72
2024/01/01 08:51:09;;;;;;;13.00;3.13;;;7.80;99.90;;;;;;5095178;28;20187;-72
2024/01/01 08:53:35;;;;;;;8.50;2.43;;;7.80;99.90;;;;;;5095080;28;20554;-71
2024/01/01 08:56:01;;;;;;;11.77;2.37;;;7.90;99.90;;;;;;5095147;28;20271;-72
2024/01/01 08:58:26;;;;;;;7.10;2.40;;;7.80;99.90;;;;;;5094726;28;20168;-71
2024/01/01 09:00:52;;;;;;;6.00;1.97;;;7.90;99.90;;;;;;5094792;28;20639;-72
2024/01/01 09:03:17;;;;;;;10.33;2.10;;;8.00;99.90;;;;;;5094309;28;20237;-72
2024/01/01 09:05:43;;;;;;;11.93;2.93;;;8.00;99.90;;;;;;5094690;28;20218;-71
2024/01/01 09:08:09;;;;;;;9.57;2.40;;;8.10;99.90;;;;;;5094651;28;20218;-72
2024/01/01 09:10:34;;;;;;;8.17;2.60;;;8.10;99.90;;;;;;5094446;28;20203;-71
2024/01/01 09:13:00;;;;;;;6.80;2.33;;;8.20;99.90;;;;;;5094568;28;20207;-71
2024/01/01 09:15:25;;;;;;;5.97;2.30;;;8.30;99.90;;;;;;5094439;28;20188;-71
2024/01/01 09:17:51;;;;;;;8.83;1.93;;;8.40;99.90;;;;;;5094289;28;20255;-72
2024/01/01 09:20:17;;;;;;;7.80;2.63;;;8.40;99.90;;;;;;5094207;28;20175;-72
2024/01/01 09:22:42;;;;;;;6.70;1.80;;;8.50;99.90;;;;;;5094187;28;20164;-72
2024/01/01 09:25:08;;;;;;;9.33;1.80;;;8.50;99.90;;;;;;5094296;28;20210;-71
2024/01/01 09:27:33;;;;;;;11.77;2.70;;;8.40;99.90;;;;;;5093934;28;20618;-72
2024/01/01 09:29:59;;;;;;;11.33;2.50;;;8.40;99.90;;;;;;5094236;28;20219;-72
2024/01/01 09:32:24;;;;;;;7.20;2.27;;;8.50;99.90;;;;;;5094222;28;20172;-71
2024/01/01 09:34:50;;;;;;;7.17;2.30;;;8.60;99.90;;;;;;5093582;28;20255;-72
2024/01/01 09:37:16;;;;;;;10.17;2.30;;;8.50;99.90;;;;;;5093998;28;20164;-71
2024/01/01 09:39:43;;;;;;;8.00;2.40;;;8.60;99.90;;;;;;5094196;28;20168;-71
2024/01/01 09:42:08;;;;;;;10.47;2.80;;;8.70;99.90;;;;;;5093861;28;20172;-72
2024/01/01 09:44:34;;;;;;;6.50;2.47;;;8.80;99.90;;;;;;5093404;28;20248;-72
2024/01/01 09:47:00;;;;;;;8.70;2.80;;;9.00;99.90;;;;;;5093832;28;20531;-72
2024/01/01 09:49:26;;;;;;;10.50;2.43;;;9.10;99.90;;;;;;5075326;28;20186;-72
2024/01/01 09:51:56;;;;;;;8.13;2.73;;;9.20;99.90;;;;;;5093567;28;20172;-73
2024/01/01 09:54:21;;;;;;;9.10;2.83;;;9.30;99.90;;;;;;5093819;28;20271;-72
2024/01/01 09:56:47;;;;;;;7.03;2.50;;;9.10;99.90;;;;;;5093960;28;20200;-72
2024/01/01 09:59:33;;;;;;;8.50;2.63;;;9.10;99.90;;;;;;5075357;28;20164;-72
2024/01/01 10:02:03;;;;;;;12.73;3.10;;;9.10;99.90;;;;;;5093249;28;20254;-73
2024/01/01 10:04:28;;;;;;;5.83;2.50;;;9.10;99.90;;;;;;5075570;28;20521;-72
2024/01/01 10:06:55;;;;;;;10.93;3.20;;;9.00;99.90;;;;;;5093850;28;20255;-72
2024/01/01 10:09:20;;;;;;;10.97;2.83;;;9.00;99.90;;;;;;5093277;28;20227;-72
2024/01/01 10:11:46;;;;;;;13.30;3.23;;;9.00;99.90;;;;;;5093594;28;20306;-72
2024/01/01 10:14:12;;;;;;;9.83;3.07;;;9.00;99.90;;;;;;5093171;28;20168;-72
2024/01/01 10:16:40;;;;;;;12.73;3.50;;;9.00;99.90;;;;;;5093323;28;20183;-72
2024/01/01 10:19:06;;;;;;;14.10;4.03;;;9.10;99.90;;;;;;5092999;28;20190;-73
2024/01/01 10:21:38;;;;;;;12.53;3.80;;;9.20;99.90;;;;;;5074904;28;20191;-73
2024/01/01 10:24:18;;;;;;;16.37;4.57;;;9.20;99.90;;;;;;5092941;28;20188;-74
2024/01/01 10:26:45;;;;;;;15.67;4.20;;;9.30;99.90;;;;;;5093584;28;20172;-73
2024/01/01 10:29:12;;;;;;;8.37;3.43;;;9.40;99.90;;;;;;5093162;28;20223;-74
2024/01/01 10:31:51;;;;;;;14.93;4.63;;;9.40;99.90;;;;;;5093095;28;20163;-74
2024/01/01 10:34:18;;;;;;;18.17;4.37;;;9.60;99.90;;;;;;5092908;28;20610;-73
2024/01/01 10:36:44;;;;;;;15.77;4.30;;;9.80;99.90;;;;;;5093134;28;20260;-73
2024/01/01 10:39:10;;;;;;;14.43;4.20;;;10.00;99.90;;;;;;5093004;28;20652;-73
2024/01/01 10:41:37;;;;;;;14.10;4.47;;;10.30;99.90;;;;;;5093328;28;20195;-73
2024/01/01 10:44:03;;;;;;;19.43;4.20;;;10.60;99.90;;;;;;5092789;28;20199;-73
2024/01/01 10:46:30;;;;;;;15.27;4.57;;;10.80;99.90;;;;;;5092269;28;20676;-72
2024/01/01 10:48:56;;;;;;;15.40;4.23;;;11.20;99.90;;;;;;5093005;28;20164;-73
2024/01/01 10:51:28;;;;;;;12.03;4.70;;;11.50;99.90;;;;;;5092497;28;20687;-73
2024/01/01 10:54:29;;;;;;;10.73;4.10;;;11.70;99.90;;;;;;5093159;28;20179;-73
2024/01/01 10:57:17;;;;;;;11.60;3.90;;;12.30;99.90;;;;;;5049480;28;20182;-75
2024/01/01 11:00:11;;;;;;;16.57;4.30;;;12.40;99.90;;;;;;5092659;28;20259;-73
2024/01/01 11:02:37;;;;;;;15.00;4.13;;;12.30;99.90;;;;;;5092653;28;20183;-74
2024/01/01 11:05:10;;;;;;;15.87;3.73;;;12.00;99.90;;;;;;5092457;28;20575;-74
2024/01/01 11:07:54;;;;;;;12.00;4.20;;;11.60;99.90;;;;;;5092652;28;20226;-74
2024/01/01 11:10:42;;;;;;;12.40;3.60;;;11.40;99.90;;;;;;5092404;28;20247;-74
2024/01/01 11:13:26;;;;;;;14.20;4.03;;;11.50;99.90;;;;;;5091765;28;20232;-73
2024/01/01 11:16:05;;;;;;;15.33;4.10;;;11.40;99.90;;;;;;5092749;28;20261;-73
2024/01/01 11:18:33;;;;;;;17.17;4.47;;;11.20;99.90;;;;;;5092525;28;20220;-74
2024/01/01 11:21:01;;;;;;;20.07;4.70;;;11.10;99.90;;;;;;5092436;28;20277;-73
2024/01/01 11:23:46;;;;;;;16.40;4.27;;;11.10;99.90;;;;;;5092507;28;20199;-74
2024/01/01 11:26:35;;;;;;;15.13;4.37;;;10.50;99.90;;;;;;5092267;28;20191;-75
2024/01/01 11:29:23;;;;;;;15.80;4.07;;;10.60;99.90;;;;;;5092290;28;20273;-74
2024/01/01 11:32:00;;;;;;;15.07;4.57;;;10.70;99.90;;;;;;5079863;28;20293;-73
2024/01/01 11:34:26;;;;;;;15.70;4.10;;;10.60;99.90;;;;;;5092608;28;20172;-74
2024/01/01 11:36:52;;;;;;;11.83;3.80;;;10.50;99.90;;;;;;5092209;28;20543;-74
2024/01/01 11:39:21;;;;;;;15.20;4.60;;;10.50;99.90;;;;;;5092205;28;20573;-74
2024/01/01 11:41:47;;;;;;;15.60;4.13;;;10.60;99.90;;;;;;5092435;28;20528;-74
2024/01/01 11:44:17;;;;;;;12.47;3.50;;;10.30;99.90;;;;;;5092244;28;20230;-74
2024/01/01 11:46:44;;;;;;;12.33;3.83;;;10.10;99.90;;;;;;5092560;28;20180;-74
2024/01/01 11:49:09;;;;;;;10.17;3.13;;;10.20;99.90;;;;;;5092218;28;20642;-73
2024/01/01 11:51:55;;;;;;;16.03;3.90;;;10.00;99.90;;;;;;5092071;28;20172;-73
2024/01/01 11:54:20;;;;;;;11.30;3.60;;;9.80;99.90;;;;;;5092457;28;20160;-75
2024/01/01 11:56:48;;;;;;;14.87;3.57;;;9.80;99.90;;;;;;5092832;28;20172;-74
2024/01/01 11:59:15;;;;;;;16.03;4.20;;;9.70;99.90;;;;;;5096039;28;20156;-74
2024/01/01 12:01:43;;;;;;;14.47;3.73;;;9.70;99.90;;;;;;5096110;28;20246;-73
2024/01/01 12:04:09;;;;;;;14.43;3.97;;;9.70;99.90;;;;;;5095796;28;20298;-74
2024/01/01 12:06:35;;;;;;;16.90;4.03;;;9.70;99.90;;;;;;5095967;28;20168;-74
2024/01/01 12:09:12;;;;;;;20.33;4.00;;;9.70;99.90;;;;;;5095777;28;20199;-74
2024/01/01 12:11:42;;;;;;;13.60;3.57;;;9.80;99.90;;;;;;5095532;28;20242;-74
2024/01/01 12:14:08;;;;;;;17.53;3.70;;;9.90;99.90;;;;;;5095600;28;20187;-74
2024/01/01 12:16:35;;;;;;;12.70;3.43;;;9.60;99.90;;;;;;5096032;28;20172;-74
2024/01/01 12:19:05;;;;;;;14.10;3.60;;;9.60;99.90;;;;;;5095446;28;20267;-74
2024/01/01 12:21:42;;;;;;;18.90;3.40;;;9.60;99.90;;;;;;5095694;28;20279;-74
2024/01/01 12:24:11;;;;;;;12.67;3.33;;;9.70;99.90;;;;;;5076964;28;20544;-74
2024/01/01 12:26:37;;;;;;;12.90;3.67;;;9.70;99.90;;;;;;5095088;28;20176;-74
2024/01/01 12:29:21;;;;;;;15.93;4.00;;;9.70;99.90;;;;;;5095190;28;20231;-75
2024/01/01 12:31:49;;;;;;;17.67;4.10;;;9.80;99.90;;;;;;5095592;28;20174;-75
2024/01/01 12:34:19;;;;;;;17.00;3.53;;;9.80;99.90;;;;;;5095075;28;20615;-74
2024/01/01 12:36:47;;;;;;;17.27;3.63;;;9.80;99.90;;;;;;5095526;28;20623;-73
2024/01/01 12:39:16;;;;;;;16.47;3.93;;;9.60;99.90;;;;;;5095212;28;20209;-74
2024/01/01 12:41:42;;;;;;;14.60;3.17;;;9.60;99.90;;;;;;5076989;28;20163;-74
2024/01/01 12:44:08;;;;;;;15.57;3.87;;;9.70;99.90;;;;;;5094910;28;20279;-74
2024/01/01 12:46:34;;;;;;;16.83;3.87;;;9.70;99.90;;;;;;5076566;28;21169;-74